Time;durP1;ratioP1;P1;durP2;ratioP2;P2;SDS_P1;SDS_P2;PMS_P1;PMS_P2;Temp;Humidity;BMP_temperature;BMP_pressure;BME280_temperature;BME280_humidity;BME280_pressure;Samples;Min_cycle;Max_cycle;Signal;HPM_P1;HPM_P2
2023/04/16 00:01:04;;;;;;;7.57;6.87;;;10.00;99.90;;;;;;5133781;27;20227;-57
2023/04/16 00:03:33;;;;;;;7.40;6.70;;;10.10;99.90;;;;;;5134266;27;20665;-57
2023/04/16 00:05:59;;;;;;;7.70;6.90;;;10.00;99.90;;;;;;5133960;27;20238;-57
2023/04/16 00:08:26;;;;;;;8.00;6.90;;;10.20;99.90;;;;;;5133559;28;20668;-57
2023/04/16 00:10:53;;;;;;;7.80;7.00;;;10.20;99.90;;;;;;5133831;28;20223;-57
2023/04/16 00:13:21;;;;;;;7.73;6.97;;;10.20;99.90;;;;;;5133935;28;20229;-58
2023/04/16 00:15:48;;;;;;;7.77;6.97;;;10.10;99.90;;;;;;5134637;28;20207;-56
2023/04/16 00:18:14;;;;;;;6.97;6.33;;;10.00;99.90;;;;;;5134810;28;20203;-57
2023/04/16 00:20:43;;;;;;;8.17;7.37;;;10.10;99.90;;;;;;5133959;28;20290;-58
2023/04/16 00:23:10;;;;;;;7.93;7.10;;;10.20;99.90;;;;;;5133561;28;20199;-57
2023/04/16 00:25:36;;;;;;;8.30;6.97;;;10.20;99.90;;;;;;5133798;28;20210;-57
2023/04/16 00:28:04;;;;;;;7.30;6.47;;;10.20;99.90;;;;;;5133990;27;20198;-57
2023/04/16 00:30:31;;;;;;;8.07;7.20;;;10.20;99.90;;;;;;5136690;27;20234;-57
2023/04/16 00:32:57;;;;;;;7.50;6.77;;;10.20;99.90;;;;;;5138396;27;20213;-57
2023/04/16 00:35:25;;;;;;;7.80;7.00;;;10.20;99.90;;;;;;5137345;27;20206;-57
2023/04/16 00:37:53;;;;;;;8.33;7.53;;;10.10;99.90;;;;;;5137856;27;20255;-57
2023/04/16 00:40:20;;;;;;;7.90;7.10;;;10.10;99.90;;;;;;5137521;27;20223;-58
2023/04/16 00:42:47;;;;;;;8.83;6.73;;;10.00;99.90;;;;;;5138293;27;20206;-57
2023/04/16 00:45:13;;;;;;;6.93;6.30;;;10.00;99.90;;;;;;5138321;27;20209;-57
2023/04/16 00:47:40;;;;;;;7.27;6.57;;;10.00;99.90;;;;;;5138130;27;20210;-57
2023/04/16 00:50:08;;;;;;;7.57;6.77;;;9.90;99.90;;;;;;5137861;27;20213;-57
2023/04/16 00:52:35;;;;;;;7.60;6.53;;;9.90;99.90;;;;;;5137469;27;20251;-57
2023/04/16 00:55:03;;;;;;;7.77;7.00;;;9.90;99.90;;;;;;5137582;27;20234;-58
2023/04/16 00:57:30;;;;;;;6.90;6.30;;;10.00;99.90;;;;;;5137675;27;20241;-57
2023/04/16 00:59:58;;;;;;;6.43;5.83;;;10.00;99.90;;;;;;5137490;27;20631;-57
2023/04/16 01:02:25;;;;;;;6.93;6.23;;;9.90;99.90;;;;;;5137038;27;20202;-57
2023/04/16 01:04:51;;;;;;;7.83;7.03;;;9.80;99.90;;;;;;5137688;27;20206;-58
2023/04/16 01:07:18;;;;;;;7.00;6.30;;;9.80;99.90;;;;;;5137442;27;20213;-58
2023/04/16 01:09:45;;;;;;;7.77;7.00;;;9.80;99.90;;;;;;5137379;27;20207;-58
2023/04/16 01:12:13;;;;;;;7.67;6.73;;;9.80;99.90;;;;;;5136946;27;20225;-58
2023/04/16 01:14:40;;;;;;;6.57;5.97;;;9.90;99.90;;;;;;5137172;27;20215;-59
2023/04/16 01:17:07;;;;;;;6.20;5.60;;;10.00;99.90;;;;;;5136855;27;20210;-58
2023/04/16 01:19:35;;;;;;;6.40;5.80;;;10.00;99.90;;;;;;5137141;27;20215;-58
2023/04/16 01:22:03;;;;;;;6.30;5.70;;;10.10;99.90;;;;;;5136709;27;20901;-57
2023/04/16 01:24:29;;;;;;;6.40;5.80;;;10.20;99.90;;;;;;5137288;27;20849;-57
2023/04/16 01:26:58;;;;;;;6.63;6.00;;;10.00;99.90;;;;;;5136573;27;20207;-57
2023/04/16 01:29:25;;;;;;;7.27;5.60;;;10.10;99.90;;;;;;5136414;27;20655;-57
2023/04/16 01:31:51;;;;;;;6.77;6.13;;;10.20;99.90;;;;;;5136268;27;20242;-57
2023/04/16 01:34:18;;;;;;;6.70;5.80;;;10.20;99.90;;;;;;5136539;27;20237;-58
2023/04/16 01:36:45;;;;;;;6.43;5.73;;;10.20;99.90;;;;;;5136310;27;20203;-57
2023/04/16 01:39:15;;;;;;;5.60;5.10;;;10.40;99.90;;;;;;5136350;27;20203;-57
2023/04/16 01:41:42;;;;;;;5.60;5.10;;;10.40;99.90;;;;;;5135802;27;20230;-57
2023/04/16 01:44:08;;;;;;;9.90;6.90;;;10.40;99.90;;;;;;5135813;27;20581;-57
2023/04/16 01:46:36;;;;;;;6.30;5.70;;;10.40;99.90;;;;;;5136004;27;20550;-57
2023/04/16 01:49:04;;;;;;;5.47;4.97;;;10.30;99.90;;;;;;5136067;27;20210;-58
2023/04/16 01:51:31;;;;;;;5.83;5.33;;;10.30;99.90;;;;;;5135720;27;20237;-58
2023/04/16 01:53:57;;;;;;;5.60;5.00;;;10.30;99.90;;;;;;5135782;27;20694;-58
2023/04/16 01:56:26;;;;;;;5.43;4.90;;;10.30;99.90;;;;;;5135836;27;20211;-57
2023/04/16 01:58:52;;;;;;;5.60;4.97;;;10.40;99.90;;;;;;5136315;27;20675;-57
2023/04/16 02:01:19;;;;;;;5.70;5.10;;;10.30;99.90;;;;;;5135367;27;20279;-58
2023/04/16 02:03:47;;;;;;;5.50;4.83;;;10.20;99.90;;;;;;5135765;27;20199;-57
2023/04/16 02:06:13;;;;;;;5.03;4.60;;;10.20;99.90;;;;;;5135555;27;20674;-57
2023/04/16 02:08:41;;;;;;;5.27;4.50;;;10.30;99.90;;;;;;5135599;27;20563;-57
2023/04/16 02:11:07;;;;;;;5.33;4.83;;;10.30;99.90;;;;;;5135858;27;20291;-57
2023/04/16 02:13:35;;;;;;;5.30;4.80;;;10.30;99.90;;;;;;5136172;27;20202;-57
2023/04/16 02:16:02;;;;;;;6.53;4.97;;;10.40;99.90;;;;;;5135984;27;20203;-57
2023/04/16 02:18:29;;;;;;;6.03;5.20;;;10.40;99.90;;;;;;5135572;27;20296;-57
2023/04/16 02:20:59;;;;;;;5.23;4.73;;;10.30;99.90;;;;;;5135542;27;20231;-57
2023/04/16 02:23:26;;;;;;;5.43;4.67;;;10.20;99.90;;;;;;5135430;27;20207;-57
2023/04/16 02:25:52;;;;;;;5.90;5.30;;;10.30;99.90;;;;;;5135710;27;20259;-57
2023/04/16 02:28:19;;;;;;;6.50;5.50;;;10.20;99.90;;;;;;5135788;27;20203;-57
2023/04/16 02:30:48;;;;;;;6.10;5.50;;;10.30;99.90;;;;;;5135160;27;20341;-57
2023/04/16 02:33:14;;;;;;;6.10;5.13;;;10.30;99.90;;;;;;5135469;27;20202;-57
2023/04/16 02:35:42;;;;;;;6.07;5.43;;;10.30;99.90;;;;;;5133954;27;20247;-57
2023/04/16 02:38:09;;;;;;;5.97;5.37;;;10.30;99.90;;;;;;5135272;27;20612;-57
2023/04/16 02:40:36;;;;;;;5.77;5.17;;;10.40;99.90;;;;;;5134775;27;20288;-57
2023/04/16 02:43:03;;;;;;;5.77;5.17;;;10.40;99.90;;;;;;5134897;27;20199;-57
2023/04/16 02:45:31;;;;;;;6.17;5.57;;;10.40;99.90;;;;;;5134915;27;20618;-57
2023/04/16 02:48:00;;;;;;;5.87;5.27;;;10.30;99.90;;;;;;5134969;27;20429;-57
2023/04/16 02:50:26;;;;;;;5.30;4.80;;;10.30;99.90;;;;;;5134633;27;20226;-57
2023/04/16 02:52:53;;;;;;;7.17;5.53;;;10.30;99.90;;;;;;5133750;27;20199;-57
2023/04/16 02:55:20;;;;;;;6.07;5.30;;;10.30;99.90;;;;;;5134924;27;20227;-57
2023/04/16 02:57:47;;;;;;;6.90;5.63;;;10.30;99.90;;;;;;5135370;27;20205;-58
2023/04/16 03:00:14;;;;;;;5.90;5.30;;;10.20;99.90;;;;;;5135130;27;20213;-58
2023/04/16 03:02:41;;;;;;;6.00;5.40;;;10.30;99.90;;;;;;5134897;27;20238;-58
2023/04/16 03:05:11;;;;;;;5.83;5.23;;;10.20;99.90;;;;;;5136118;27;20719;-57
2023/04/16 03:07:39;;;;;;;6.60;5.77;;;10.20;99.90;;;;;;5136766;27;20233;-57
2023/04/16 03:10:07;;;;;;;6.07;5.40;;;10.20;99.90;;;;;;5136625;27;20207;-57
2023/04/16 03:12:34;;;;;;;7.70;5.80;;;10.30;99.90;;;;;;5137119;27;20592;-57
2023/04/16 03:15:01;;;;;;;6.53;5.83;;;10.30;99.90;;;;;;5137002;27;20226;-57
2023/04/16 03:17:28;;;;;;;6.23;5.63;;;10.20;99.90;;;;;;5137701;27;20210;-58
2023/04/16 03:19:54;;;;;;;6.97;6.17;;;10.20;99.90;;;;;;5137343;27;20211;-58
2023/04/16 03:22:23;;;;;;;6.13;5.30;;;10.20;99.90;;;;;;5136205;27;20736;-57
2023/04/16 03:24:49;;;;;;;7.20;5.70;;;10.20;99.90;;;;;;5136635;27;20203;-57
2023/04/16 03:27:16;;;;;;;7.67;6.43;;;10.20;99.90;;;;;;5135980;27;20693;-57
2023/04/16 03:29:43;;;;;;;7.70;6.27;;;10.20;99.90;;;;;;5135889;27;20210;-57
2023/04/16 03:32:11;;;;;;;6.60;5.97;;;10.10;99.90;;;;;;5135221;27;20234;-58
2023/04/16 03:34:38;;;;;;;7.47;6.13;;;10.00;99.90;;;;;;5135894;27;20255;-58
2023/04/16 03:37:05;;;;;;;7.90;6.47;;;10.00;99.90;;;;;;5136129;27;20202;-58
2023/04/16 03:39:33;;;;;;;6.90;6.20;;;10.00;99.90;;;;;;5136279;27;20226;-58
2023/04/16 03:42:01;;;;;;;6.97;6.27;;;10.00;99.90;;;;;;5135084;27;20241;-58
2023/04/16 03:44:27;;;;;;;7.77;6.97;;;10.00;99.90;;;;;;5134973;27;20258;-56
2023/04/16 03:46:54;;;;;;;8.13;7.00;;;9.90;99.90;;;;;;5134541;27;20215;-57
2023/04/16 03:49:21;;;;;;;7.93;6.50;;;9.90;99.90;;;;;;5134674;27;20618;-57
2023/04/16 03:51:48;;;;;;;6.93;6.23;;;9.90;99.90;;;;;;5133910;27;20602;-57
2023/04/16 03:54:15;;;;;;;8.00;6.77;;;9.80;99.90;;;;;;5134347;27;20218;-58
2023/04/16 03:56:43;;;;;;;11.60;7.10;;;9.90;99.90;;;;;;5134181;27;20198;-58
2023/04/16 03:59:10;;;;;;;7.53;6.77;;;9.90;99.90;;;;;;5134452;27;20214;-56
2023/04/16 04:01:36;;;;;;;7.17;6.47;;;9.90;99.90;;;;;;5133572;27;20250;-58
2023/04/16 04:04:03;;;;;;;7.63;6.90;;;9.90;99.90;;;;;;5134262;27;20214;-57
2023/04/16 04:06:30;;;;;;;8.37;7.47;;;9.80;99.90;;;;;;5134159;27;20217;-56
2023/04/16 04:08:57;;;;;;;8.07;6.97;;;9.80;99.90;;;;;;5134219;27;20285;-56
2023/04/16 04:11:24;;;;;;;7.80;7.03;;;9.90;99.90;;;;;;5133504;28;20230;-56
2023/04/16 04:13:52;;;;;;;7.97;6.77;;;9.90;99.90;;;;;;5133579;28;20191;-57
2023/04/16 04:16:19;;;;;;;7.77;6.77;;;9.80;99.90;;;;;;5133337;28;20226;-57
2023/04/16 04:18:45;;;;;;;8.33;6.47;;;9.90;99.90;;;;;;5133918;27;20203;-56
2023/04/16 04:21:12;;;;;;;7.70;6.90;;;9.90;99.90;;;;;;5133539;28;20233;-56
2023/04/16 04:23:40;;;;;;;8.20;7.13;;;9.90;99.90;;;;;;5133508;28;20202;-56
2023/04/16 04:26:07;;;;;;;9.70;6.57;;;9.80;99.90;;;;;;5133837;28;20285;-56
2023/04/16 04:28:34;;;;;;;7.80;7.00;;;9.80;99.90;;;;;;5133553;28;20207;-56
2023/04/16 04:31:03;;;;;;;7.73;6.83;;;9.80;99.90;;;;;;5133622;28;20233;-56
2023/04/16 04:33:30;;;;;;;8.90;7.63;;;9.80;99.90;;;;;;5134193;28;20213;-56
2023/04/16 04:35:56;;;;;;;9.20;7.60;;;9.80;99.90;;;;;;5133622;28;20219;-56
2023/04/16 04:38:24;;;;;;;8.47;7.37;;;9.80;99.90;;;;;;5133963;28;20230;-56
2023/04/16 04:40:51;;;;;;;8.20;7.23;;;9.70;99.90;;;;;;5133287;28;20227;-56
2023/04/16 04:43:18;;;;;;;8.50;7.57;;;9.70;99.90;;;;;;5133185;28;20202;-57
2023/04/16 04:45:44;;;;;;;9.27;7.80;;;9.80;99.90;;;;;;5133292;28;20199;-57
2023/04/16 04:48:12;;;;;;;10.13;7.67;;;9.80;99.90;;;;;;5133335;28;20206;-57
2023/04/16 04:50:40;;;;;;;9.20;7.30;;;9.80;99.90;;;;;;5132886;28;20223;-57
2023/04/16 04:53:09;;;;;;;9.07;7.43;;;9.80;99.90;;;;;;5133278;28;20670;-57
2023/04/16 04:55:36;;;;;;;8.97;7.57;;;9.80;99.90;;;;;;5133169;28;20774;-57
2023/04/16 04:58:03;;;;;;;9.27;7.50;;;9.80;99.90;;;;;;5133149;28;20207;-58
2023/04/16 05:00:30;;;;;;;8.97;7.17;;;9.80;99.90;;;;;;5133567;28;20227;-57
2023/04/16 05:02:57;;;;;;;8.47;7.43;;;9.90;99.90;;;;;;5133086;28;20203;-58
2023/04/16 05:05:25;;;;;;;9.63;7.20;;;9.90;99.90;;;;;;5133089;28;20199;-57
2023/04/16 05:07:52;;;;;;;9.20;7.73;;;9.90;99.90;;;;;;5132727;28;20686;-57
2023/04/16 05:10:19;;;;;;;8.23;7.23;;;10.00;99.90;;;;;;5132985;28;20231;-57
2023/04/16 05:12:47;;;;;;;8.73;7.50;;;10.00;99.90;;;;;;5133331;28;20210;-57
2023/04/16 05:15:13;;;;;;;8.40;7.57;;;10.00;99.90;;;;;;5134305;27;20314;-57
2023/04/16 05:17:41;;;;;;;8.23;7.43;;;9.90;99.90;;;;;;5137099;27;20210;-59
2023/04/16 05:20:09;;;;;;;8.83;7.33;;;9.90;99.90;;;;;;5137022;27;20712;-58
2023/04/16 05:22:37;;;;;;;9.93;8.03;;;9.90;99.90;;;;;;5136558;27;20223;-57
2023/04/16 05:25:04;;;;;;;7.97;7.17;;;9.90;99.90;;;;;;5136458;27;20202;-57
2023/04/16 05:27:31;;;;;;;8.40;7.27;;;10.00;99.90;;;;;;5136590;27;20207;-57
2023/04/16 05:29:58;;;;;;;10.37;8.67;;;10.00;99.90;;;;;;5136415;27;20303;-57
2023/04/16 05:32:26;;;;;;;9.63;8.20;;;10.00;99.90;;;;;;5136263;27;20229;-57
2023/04/16 05:34:53;;;;;;;10.57;8.00;;;10.00;99.90;;;;;;5136296;27;20227;-57
2023/04/16 05:37:20;;;;;;;10.67;8.70;;;10.10;99.90;;;;;;5136245;27;20615;-57
2023/04/16 05:39:48;;;;;;;9.20;8.07;;;10.20;99.90;;;;;;5136721;27;20199;-57
2023/04/16 05:42:15;;;;;;;8.97;8.03;;;10.10;99.90;;;;;;5135861;27;20226;-57
2023/04/16 05:44:42;;;;;;;10.97;9.30;;;10.10;99.90;;;;;;5136201;27;20241;-57
2023/04/16 05:47:08;;;;;;;9.57;8.57;;;10.10;99.90;;;;;;5136047;27;20218;-57
2023/04/16 05:49:36;;;;;;;11.97;8.63;;;10.10;99.90;;;;;;5136220;27;20696;-57
2023/04/16 05:52:03;;;;;;;10.40;9.20;;;10.10;99.90;;;;;;5135461;27;20652;-57
2023/04/16 05:54:30;;;;;;;10.67;9.27;;;10.10;99.90;;;;;;5136223;27;20203;-57
2023/04/16 05:56:58;;;;;;;12.03;9.70;;;10.20;99.90;;;;;;5135732;27;20203;-57
2023/04/16 05:59:25;;;;;;;11.30;9.73;;;10.20;99.90;;;;;;5135803;27;20213;-57
2023/04/16 06:01:51;;;;;;;12.30;10.23;;;10.30;99.90;;;;;;5135562;27;20737;-58
2023/04/16 06:04:18;;;;;;;11.07;9.27;;;10.30;99.90;;;;;;5135680;27;20203;-57
2023/04/16 06:06:45;;;;;;;11.23;9.37;;;10.40;99.90;;;;;;5135493;27;20194;-57
2023/04/16 06:09:12;;;;;;;12.13;10.00;;;10.40;99.90;;;;;;5135833;27;20697;-58
2023/04/16 06:11:38;;;;;;;12.63;9.90;;;10.40;99.90;;;;;;5135526;27;20250;-57
2023/04/16 06:14:07;;;;;;;12.37;10.67;;;10.40;99.90;;;;;;5135493;27;20202;-57
2023/04/16 06:16:33;;;;;;;13.57;11.07;;;10.50;99.90;;;;;;5135473;27;20250;-58
2023/04/16 06:19:00;;;;;;;12.07;10.47;;;10.50;99.90;;;;;;5135672;27;20288;-58
2023/04/16 06:21:28;;;;;;;12.50;10.30;;;10.40;99.90;;;;;;5135384;27;20454;-57
2023/04/16 06:23:55;;;;;;;15.47;12.37;;;10.30;99.90;;;;;;5135809;27;20690;-57
2023/04/16 06:26:22;;;;;;;13.50;10.87;;;10.20;99.90;;;;;;5135044;27;20233;-57
2023/04/16 06:28:49;;;;;;;12.80;10.83;;;10.20;99.90;;;;;;5135709;27;20209;-57
2023/04/16 06:31:17;;;;;;;13.00;10.90;;;10.10;99.90;;;;;;5135034;27;20234;-58
2023/04/16 06:33:44;;;;;;;12.80;11.40;;;10.10;99.90;;;;;;5135130;27;20229;-57
2023/04/16 06:36:11;;;;;;;13.07;11.30;;;10.00;99.90;;;;;;5135152;27;20295;-58
2023/04/16 06:38:38;;;;;;;14.00;11.80;;;10.10;99.90;;;;;;5135331;27;20210;-58
2023/04/16 06:41:05;;;;;;;14.27;12.27;;;10.20;99.90;;;;;;5134679;27;20230;-57
2023/04/16 06:43:32;;;;;;;13.83;11.73;;;10.30;99.90;;;;;;5134825;27;20210;-57
2023/04/16 06:45:59;;;;;;;14.20;11.47;;;10.50;99.90;;;;;;5135208;27;20199;-58
2023/04/16 06:48:28;;;;;;;12.90;11.50;;;10.40;99.90;;;;;;5134863;27;20207;-57
2023/04/16 06:50:55;;;;;;;14.57;11.90;;;10.40;99.90;;;;;;5134963;27;20230;-57
2023/04/16 06:53:23;;;;;;;12.93;11.23;;;10.40;99.90;;;;;;5135104;27;20310;-57
2023/04/16 06:55:50;;;;;;;13.93;11.67;;;10.30;99.90;;;;;;5134564;27;20218;-58
2023/04/16 06:58:16;;;;;;;13.47;11.17;;;10.30;99.90;;;;;;5135140;27;20602;-61
2023/04/16 07:00:43;;;;;;;15.27;11.77;;;10.30;99.90;;;;;;5135041;27;20230;-58
2023/04/16 07:03:10;;;;;;;13.20;11.60;;;10.30;99.90;;;;;;5134319;27;20579;-57
2023/04/16 07:05:38;;;;;;;14.03;12.57;;;10.30;99.90;;;;;;5134478;27;20207;-56
2023/04/16 07:08:05;;;;;;;16.00;12.00;;;10.30;99.90;;;;;;5134500;27;20210;-56
2023/04/16 07:10:32;;;;;;;14.17;12.63;;;10.30;99.90;;;;;;5134085;27;20238;-57
2023/04/16 07:13:00;;;;;;;12.70;11.20;;;10.40;99.90;;;;;;5133821;27;20658;-57
2023/04/16 07:15:27;;;;;;;13.57;12.10;;;10.40;99.90;;;;;;5134018;27;20223;-56
2023/04/16 07:17:53;;;;;;;13.80;11.47;;;10.50;99.90;;;;;;5134565;27;20203;-57
2023/04/16 07:20:20;;;;;;;14.83;12.10;;;10.60;99.90;;;;;;5134179;27;20222;-57
2023/04/16 07:22:49;;;;;;;13.23;11.60;;;10.80;99.90;;;;;;5134159;27;20234;-57
2023/04/16 07:25:15;;;;;;;13.53;10.90;;;10.70;99.90;;;;;;5134106;27;20203;-56
2023/04/16 07:27:42;;;;;;;19.13;11.37;;;10.70;99.90;;;;;;5134043;27;20592;-57
2023/04/16 07:30:10;;;;;;;14.93;11.53;;;10.60;99.90;;;;;;5133442;27;20202;-57
2023/04/16 07:32:37;;;;;;;17.20;12.90;;;10.50;99.90;;;;;;5134015;27;20655;-56
2023/04/16 07:35:04;;;;;;;13.73;11.40;;;10.50;99.90;;;;;;5133700;27;20613;-55
2023/04/16 07:37:30;;;;;;;15.80;11.67;;;10.40;99.90;;;;;;5133400;27;20209;-56
2023/04/16 07:39:59;;;;;;;14.83;12.43;;;10.60;99.90;;;;;;5133614;27;20253;-56
2023/04/16 07:42:26;;;;;;;14.77;12.03;;;10.60;99.90;;;;;;5133327;27;20666;-56
2023/04/16 07:44:54;;;;;;;14.93;11.43;;;10.60;99.90;;;;;;5133649;27;20202;-62
2023/04/16 07:47:21;;;;;;;12.50;11.10;;;10.50;99.90;;;;;;5133598;27;20201;-57
2023/04/16 07:49:49;;;;;;;13.93;10.90;;;10.50;99.90;;;;;;5133498;27;20208;-57
2023/04/16 07:52:16;;;;;;;14.40;11.17;;;10.60;99.90;;;;;;5133345;27;20231;-57
2023/04/16 07:54:42;;;;;;;12.93;11.10;;;10.60;99.90;;;;;;5133879;27;20659;-57
2023/04/16 07:57:11;;;;;;;13.93;11.23;;;10.50;99.90;;;;;;5133230;27;20227;-58
2023/04/16 07:59:38;;;;;;;13.43;11.37;;;10.60;99.90;;;;;;5133413;27;20247;-57
2023/04/16 08:02:06;;;;;;;14.67;11.87;;;10.70;99.90;;;;;;5133309;27;20215;-57
2023/04/16 08:04:33;;;;;;;13.23;10.60;;;10.80;99.90;;;;;;5134161;27;20207;-56
2023/04/16 08:06:59;;;;;;;12.73;11.07;;;10.80;99.90;;;;;;5135248;27;20302;-56
2023/04/16 08:09:27;;;;;;;14.97;11.47;;;10.70;99.90;;;;;;5134249;27;20218;-57
2023/04/16 08:11:54;;;;;;;12.43;10.70;;;10.70;99.90;;;;;;5133490;27;20227;-57
2023/04/16 08:14:22;;;;;;;19.47;17.33;;;10.80;99.90;;;;;;5134026;27;20206;-57
2023/04/16 08:16:49;;;;;;;12.03;10.40;;;10.70;99.90;;;;;;5133702;27;20226;-56
2023/04/16 08:19:16;;;;;;;12.43;10.43;;;10.80;99.90;;;;;;5133575;28;20211;-56
2023/04/16 08:21:43;;;;;;;13.50;10.83;;;10.70;99.90;;;;;;5134090;28;20737;-60
2023/04/16 08:24:10;;;;;;;14.87;11.27;;;10.80;99.90;;;;;;5134407;28;20288;-57
2023/04/16 08:26:38;;;;;;;11.87;9.87;;;10.90;99.90;;;;;;5133457;28;20203;-57
2023/04/16 08:29:05;;;;;;;12.23;10.47;;;11.00;99.90;;;;;;5133279;28;20566;-58
2023/04/16 08:31:33;;;;;;;12.93;9.87;;;11.20;99.90;;;;;;5133166;28;20321;-57
2023/04/16 08:34:00;;;;;;;12.23;10.20;;;11.20;99.90;;;;;;5133445;27;20198;-58
2023/04/16 08:36:27;;;;;;;11.43;10.07;;;11.20;99.90;;;;;;5133052;27;20218;-58
2023/04/16 08:38:54;;;;;;;11.47;9.83;;;11.20;99.90;;;;;;5132981;27;20739;-57
2023/04/16 08:41:22;;;;;;;11.13;9.83;;;11.30;99.90;;;;;;5132934;28;20222;-57
2023/04/16 08:43:51;;;;;;;11.17;9.70;;;11.30;99.90;;;;;;5133571;28;20648;-61
2023/04/16 08:46:19;;;;;;;10.80;9.27;;;11.40;99.90;;;;;;5133271;27;20199;-57
2023/04/16 08:48:50;;;;;;;11.63;9.40;;;11.30;99.90;;;;;;5133021;28;20199;-57
2023/04/16 08:51:19;;;;;;;10.20;9.07;;;11.40;99.90;;;;;;5135597;27;20620;-57
2023/04/16 08:53:52;;;;;;;11.17;8.70;;;11.50;99.90;;;;;;5137246;27;20207;-57
2023/04/16 08:56:21;;;;;;;10.80;9.20;;;11.60;99.90;;;;;;5137009;27;20253;-58
2023/04/16 08:58:50;;;;;;;13.93;9.93;;;11.80;99.90;;;;;;5137053;27;20228;-58
2023/04/16 09:01:18;;;;;;;12.30;9.23;;;12.00;99.90;;;;;;5136503;27;20227;-58
2023/04/16 09:03:47;;;;;;;9.93;8.80;;;12.10;99.90;;;;;;5136732;27;20202;-58
2023/04/16 09:06:15;;;;;;;9.67;8.23;;;12.20;99.90;;;;;;5136656;27;20291;-58
2023/04/16 09:08:44;;;;;;;11.50;9.67;;;12.20;99.90;;;;;;5137240;27;20234;-58
2023/04/16 09:11:12;;;;;;;10.70;8.63;;;12.00;99.90;;;;;;5136468;27;20578;-59
2023/04/16 09:13:39;;;;;;;10.67;8.83;;;11.90;99.90;;;;;;5136698;27;20202;-58
2023/04/16 09:16:08;;;;;;;9.87;8.63;;;11.90;99.90;;;;;;5136463;27;20219;-57
2023/04/16 09:18:35;;;;;;;10.17;8.73;;;11.90;99.90;;;;;;5136953;27;20275;-57
2023/04/16 09:21:03;;;;;;;9.53;8.30;;;11.90;99.90;;;;;;5136732;27;20222;-57
2023/04/16 09:23:30;;;;;;;23.77;20.20;;;12.00;99.90;;;;;;5136562;27;20207;-58
2023/04/16 09:25:59;;;;;;;11.03;8.30;;;12.00;99.90;;;;;;5136268;27;20207;-58
2023/04/16 09:28:43;;;;;;;10.00;7.83;;;11.90;99.90;;;;;;5136516;27;20207;-58
2023/04/16 09:31:12;;;;;;;10.10;7.93;;;11.80;99.90;;;;;;5136087;27;20321;-58
2023/04/16 09:33:39;;;;;;;10.57;7.93;;;11.80;99.90;;;;;;5136668;27;20207;-58
2023/04/16 09:36:07;;;;;;;9.17;7.73;;;11.90;99.90;;;;;;5136226;27;20226;-58
2023/04/16 09:38:47;;;;;;;10.67;8.77;;;11.90;99.90;;;;;;5136134;27;20213;-57
2023/04/16 09:41:15;;;;;;;10.63;7.70;;;11.80;99.90;;;;;;5135585;27;20230;-58
2023/04/16 09:43:49;;;;;;;9.20;8.30;;;11.70;99.90;;;;;;5135985;27;20639;-58
2023/04/16 09:46:16;;;;;;;9.57;8.03;;;11.60;99.90;;;;;;5136340;27;20203;-59
2023/04/16 09:48:45;;;;;;;10.10;8.07;;;11.60;99.90;;;;;;5136145;27;20585;-57
2023/04/16 09:51:14;;;;;;;10.83;8.07;;;11.60;99.90;;;;;;5136056;27;20223;-59
2023/04/16 09:53:40;;;;;;;12.70;8.97;;;11.60;99.90;;;;;;5136174;27;20286;-58
2023/04/16 09:56:08;;;;;;;10.70;8.90;;;11.60;99.90;;;;;;5136190;27;20210;-57
2023/04/16 09:58:37;;;;;;;10.00;7.97;;;11.50;99.90;;;;;;5136377;27;20210;-59
2023/04/16 10:01:07;;;;;;;11.53;8.33;;;11.40;99.90;;;;;;5136238;27;20218;-57
2023/04/16 10:03:34;;;;;;;10.73;7.93;;;11.30;99.90;;;;;;5136205;27;20210;-57
2023/04/16 10:06:06;;;;;;;9.97;8.40;;;11.30;99.90;;;;;;5136090;27;20670;-58
2023/04/16 10:08:34;;;;;;;11.57;9.67;;;11.20;99.90;;;;;;5136873;27;20199;-57
2023/04/16 10:11:02;;;;;;;11.93;9.33;;;11.10;99.90;;;;;;5136460;27;20238;-58
2023/04/16 10:13:30;;;;;;;9.53;7.67;;;11.10;99.90;;;;;;5136300;27;20207;-58
2023/04/16 10:15:57;;;;;;;10.53;8.33;;;11.20;99.90;;;;;;5136655;27;20256;-59
2023/04/16 10:18:25;;;;;;;10.87;8.77;;;11.20;99.90;;;;;;5136231;27;20218;-57
2023/04/16 10:20:52;;;;;;;15.03;10.87;;;11.30;99.90;;;;;;5136375;27;20231;-58
2023/04/16 10:23:20;;;;;;;11.30;8.57;;;11.40;99.90;;;;;;5136406;27;20210;-57
2023/04/16 10:25:50;;;;;;;9.97;8.50;;;11.60;99.90;;;;;;5136480;27;20674;-57
2023/04/16 10:28:17;;;;;;;12.90;9.93;;;11.40;99.90;;;;;;5136518;27;20195;-58
2023/04/16 10:30:51;;;;;;;10.00;8.70;;;11.30;99.90;;;;;;5136369;27;20298;-58
2023/04/16 10:33:20;;;;;;;10.70;8.50;;;11.40;99.90;;;;;;5136303;27;20270;-57
2023/04/16 10:35:47;;;;;;;10.40;8.33;;;11.30;99.90;;;;;;5136582;27;20689;-57
2023/04/16 10:38:24;;;;;;;10.83;8.97;;;11.30;99.90;;;;;;5136274;27;20230;-58
2023/04/16 10:40:59;;;;;;;12.90;8.87;;;11.40;99.90;;;;;;5136208;27;20223;-59
2023/04/16 10:43:26;;;;;;;13.17;9.50;;;11.40;99.90;;;;;;5135518;27;20198;-59
2023/04/16 10:45:54;;;;;;;12.63;9.37;;;11.50;99.90;;;;;;5135430;27;20238;-58
2023/04/16 10:48:21;;;;;;;12.33;8.53;;;11.50;99.90;;;;;;5135120;27;20195;-58
2023/04/16 10:50:58;;;;;;;10.70;8.27;;;11.60;99.90;;;;;;5134967;27;20218;-59
2023/04/16 10:53:27;;;;;;;11.40;8.70;;;11.60;99.90;;;;;;5135129;27;20210;-59
2023/04/16 10:56:14;;;;;;;11.17;9.13;;;11.60;99.90;;;;;;5134907;27;20207;-59
2023/04/16 10:58:41;;;;;;;10.67;8.83;;;11.70;99.90;;;;;;5134729;27;20575;-59
2023/04/16 11:01:13;;;;;;;12.10;8.83;;;11.70;99.90;;;;;;5134586;27;20313;-59
2023/04/16 11:03:44;;;;;;;10.73;8.50;;;11.70;99.90;;;;;;5134377;27;20222;-59
2023/04/16 11:06:15;;;;;;;11.40;9.27;;;11.80;99.90;;;;;;5134156;27;20214;-59
2023/04/16 11:08:44;;;;;;;18.17;16.17;;;11.90;99.90;;;;;;5134463;27;20206;-59
2023/04/16 11:11:12;;;;;;;10.80;8.53;;;11.90;99.90;;;;;;5134151;27;20226;-58
2023/04/16 11:13:43;;;;;;;11.10;8.47;;;11.90;99.90;;;;;;5133496;27;20254;-58
2023/04/16 11:16:10;;;;;;;9.47;8.07;;;11.80;99.90;;;;;;5134284;27;20213;-58
2023/04/16 11:18:40;;;;;;;11.30;7.93;;;11.70;99.90;;;;;;5134335;27;20256;-58
2023/04/16 11:21:09;;;;;;;10.77;8.30;;;11.70;99.90;;;;;;5134226;27;20230;-58
2023/04/16 11:23:49;;;;;;;9.77;7.07;;;11.80;99.90;;;;;;5134083;27;20263;-58
2023/04/16 11:26:29;;;;;;;9.13;7.10;;;11.70;99.90;;;;;;5134119;27;20203;-58
2023/04/16 11:28:56;;;;;;;10.73;7.53;;;11.80;99.90;;;;;;5133930;27;20244;-58
2023/04/16 11:31:25;;;;;;;9.30;7.10;;;11.70;99.90;;;;;;5133828;27;20292;-58
2023/04/16 11:33:52;;;;;;;11.17;8.13;;;11.80;99.90;;;;;;5133917;27;20253;-58
2023/04/16 11:36:19;;;;;;;9.97;7.67;;;11.90;99.90;;;;;;5133682;27;20667;-58
2023/04/16 11:38:47;;;;;;;9.03;7.33;;;11.90;99.90;;;;;;5133911;27;20214;-58
2023/04/16 11:41:20;;;;;;;8.63;6.97;;;12.00;99.90;;;;;;5133766;27;20219;-58
2023/04/16 11:43:48;;;;;;;9.70;6.93;;;12.00;99.90;;;;;;5133445;27;20210;-59
2023/04/16 11:46:15;;;;;;;8.73;6.57;;;12.20;99.90;;;;;;5133550;27;20234;-59
2023/04/16 11:48:52;;;;;;;7.57;6.00;;;12.30;99.90;;;;;;5133806;27;20667;-58
2023/04/16 11:51:21;;;;;;;17.03;13.97;;;12.20;99.90;;;;;;5133987;27;20223;-56
2023/04/16 11:53:51;;;;;;;6.87;5.40;;;12.10;99.90;;;;;;5133674;27;20214;-57
2023/04/16 11:56:26;;;;;;;7.80;5.80;;;12.20;99.90;;;;;;5133362;27;20206;-56
2023/04/16 11:59:14;;;;;;;7.10;5.57;;;12.10;99.90;;;;;;5133468;27;20258;-56
2023/04/16 12:01:44;;;;;;;5.70;5.10;;;12.20;99.90;;;;;;5133506;27;20244;-57
2023/04/16 12:04:11;;;;;;;7.57;5.40;;;12.20;99.90;;;;;;5133993;27;20245;-57
2023/04/16 12:06:37;;;;;;;8.00;5.77;;;12.20;99.90;;;;;;5133666;27;20203;-56
2023/04/16 12:09:22;;;;;;;7.73;5.43;;;12.20;99.90;;;;;;5133692;27;20199;-57
2023/04/16 12:11:49;;;;;;;6.30;5.27;;;12.40;99.90;;;;;;5133646;27;20249;-56
2023/04/16 12:14:17;;;;;;;7.27;5.53;;;12.50;99.90;;;;;;5133555;27;20248;-57
2023/04/16 12:16:44;;;;;;;8.30;5.93;;;12.70;99.90;;;;;;5133540;27;20226;-57
2023/04/16 12:19:12;;;;;;;5.43;4.73;;;12.80;99.90;;;;;;5133719;28;20198;-56
2023/04/16 12:21:40;;;;;;;6.30;4.90;;;13.00;99.90;;;;;;5133527;28;20222;-56
2023/04/16 12:24:08;;;;;;;5.47;4.50;;;12.90;99.90;;;;;;5133674;27;20717;-56
2023/04/16 12:26:43;;;;;;;5.93;4.20;;;12.90;99.90;;;;;;5137027;27;20214;-56
2023/04/16 12:29:21;;;;;;;4.93;4.40;;;12.70;99.90;;;;;;5138030;27;20227;-56
2023/04/16 12:31:50;;;;;;;6.43;4.40;;;12.70;99.90;;;;;;5137230;27;20234;-56
2023/04/16 12:34:17;;;;;;;5.67;4.40;;;12.60;99.90;;;;;;5137328;27;20263;-56
2023/04/16 12:36:46;;;;;;;5.03;4.07;;;12.60;99.90;;;;;;5137701;27;20297;-56
2023/04/16 12:39:14;;;;;;;8.63;6.90;;;12.60;99.90;;;;;;5137206;27;20294;-56
2023/04/16 12:41:42;;;;;;;4.90;4.40;;;12.60;99.90;;;;;;5136620;27;20725;-56
2023/04/16 12:44:10;;;;;;;6.53;4.17;;;12.60;99.90;;;;;;5137003;27;20208;-56
2023/04/16 12:46:40;;;;;;;5.37;4.17;;;12.60;99.90;;;;;;5137128;27;20209;-56